Time;durP1;ratioP1;P1;durP2;ratioP2;P2;SDS_P1;SDS_P2;PMS_P1;PMS_P2;Temp;Humidity;BMP_temperature;BMP_pressure;BME280_temperature;BME280_humidity;BME280_pressure;Samples;Min_cycle;Max_cycle;Signal;HPM_P1;HPM_P2
2022/04/07 00:00:58;;;;;;;13.57;8.98;;;9.20;99.90;;;;;;5032896;28;20035;-77
2022/04/07 00:03:23;;;;;;;10.23;8.60;;;9.30;99.90;;;;;;5066186;28;20070;-78
2022/04/07 00:05:49;;;;;;;11.20;9.13;;;9.30;99.90;;;;;;5050665;28;20554;-77
2022/04/07 00:08:15;;;;;;;10.40;8.45;;;9.40;99.90;;;;;;5069297;28;20493;-78
2022/04/07 00:10:41;;;;;;;11.70;8.93;;;9.40;99.90;;;;;;5050636;28;20033;-78
2022/04/07 00:13:07;;;;;;;10.63;8.68;;;9.40;99.90;;;;;;5065934;28;20542;-77
2022/04/07 00:15:33;;;;;;;9.82;8.82;;;9.40;99.90;;;;;;5070283;28;20056;-77
2022/04/07 00:17:59;;;;;;;8.60;7.55;;;9.40;99.90;;;;;;5051813;28;20074;-77
2022/04/07 00:20:26;;;;;;;11.65;8.80;;;9.50;99.90;;;;;;5066263;28;20110;-77
2022/04/07 00:22:53;;;;;;;9.48;7.90;;;9.50;99.90;;;;;;5033518;28;20071;-78
2022/04/07 00:25:18;;;;;;;8.95;7.20;;;9.50;99.90;;;;;;5052156;28;20050;-78
2022/04/07 00:27:44;;;;;;;9.55;7.43;;;9.50;99.90;;;;;;5049125;28;20037;-78
2022/04/07 00:30:13;;;;;;;9.85;8.77;;;9.50;99.90;;;;;;5056811;28;20127;-78
2022/04/07 00:32:44;;;;;;;11.10;7.75;;;9.50;99.90;;;;;;5058082;28;20040;-78
2022/04/07 00:35:10;;;;;;;9.80;8.20;;;9.50;99.90;;;;;;5035986;28;20032;-78
2022/04/07 00:37:36;;;;;;;10.38;8.10;;;9.50;99.90;;;;;;5055020;28;20030;-77
2022/04/07 00:40:03;;;;;;;11.05;7.50;;;9.50;99.90;;;;;;5054011;28;20039;-78
2022/04/07 00:42:29;;;;;;;11.55;7.38;;;9.50;99.90;;;;;;5088578;28;20519;-78
2022/04/07 00:44:55;;;;;;;8.63;7.72;;;9.60;99.90;;;;;;5055704;28;20099;-78
2022/04/07 00:47:22;;;;;;;12.20;8.32;;;9.60;99.90;;;;;;5073551;28;20044;-79
2022/04/07 00:49:47;;;;;;;10.60;8.50;;;9.60;99.90;;;;;;5053664;28;20102;-79
2022/04/07 00:52:16;;;;;;;9.63;7.93;;;9.50;99.90;;;;;;5053004;28;20605;-79
2022/04/07 00:54:42;;;;;;;11.32;8.10;;;9.50;99.90;;;;;;5059398;28;20050;-77
2022/04/07 00:57:08;;;;;;;10.65;7.78;;;9.60;99.90;;;;;;5065114;28;20028;-79
2022/04/07 00:59:37;;;;;;;9.50;7.50;;;9.70;99.90;;;;;;5084825;28;20043;-78
2022/04/07 01:02:03;;;;;;;9.00;7.05;;;9.60;99.90;;;;;;5067390;28;20084;-79
2022/04/07 01:04:29;;;;;;;9.70;6.63;;;9.60;99.90;;;;;;5084358;28;20539;-79
2022/04/07 01:06:55;;;;;;;9.80;6.80;;;9.60;99.90;;;;;;5059444;28;20052;-78
2022/04/07 01:09:21;;;;;;;10.20;7.57;;;9.60;99.90;;;;;;5078137;28;20024;-79
2022/04/07 01:11:47;;;;;;;9.68;7.35;;;9.60;99.90;;;;;;5061011;28;20029;-78
2022/04/07 01:14:13;;;;;;;11.88;8.55;;;9.60;99.90;;;;;;5072424;28;20028;-78
2022/04/07 01:16:39;;;;;;;10.73;8.60;;;9.50;99.90;;;;;;5081537;28;20043;-80
2022/04/07 01:19:05;;;;;;;11.80;9.27;;;9.50;99.90;;;;;;5069224;28;20040;-79
2022/04/07 01:21:32;;;;;;;11.77;8.85;;;9.50;99.90;;;;;;5063690;28;20032;-79
2022/04/07 01:24:06;;;;;;;12.45;9.80;;;9.60;99.90;;;;;;5065111;28;20024;-79
2022/04/07 01:26:53;;;;;;;12.40;9.63;;;9.60;99.90;;;;;;5072518;28;20021;-79
2022/04/07 01:29:25;;;;;;;14.70;9.88;;;9.50;99.90;;;;;;5067811;28;20033;-79
2022/04/07 01:31:51;;;;;;;13.77;9.38;;;9.60;99.90;;;;;;5033961;28;20115;-79
2022/04/07 01:34:18;;;;;;;12.25;9.98;;;9.50;99.90;;;;;;5057264;28;20088;-78
2022/04/07 01:36:46;;;;;;;13.02;9.95;;;9.50;99.90;;;;;;5081851;28;20028;-78
2022/04/07 01:39:14;;;;;;;12.82;8.43;;;9.50;99.90;;;;;;5042989;28;20048;-79
2022/04/07 01:41:43;;;;;;;12.75;9.45;;;9.50;99.90;;;;;;5090964;28;20028;-78
2022/04/07 01:44:09;;;;;;;10.52;8.90;;;9.60;99.90;;;;;;5050073;28;20027;-78
2022/04/07 01:46:36;;;;;;;13.00;8.77;;;9.50;99.90;;;;;;5071793;28;20052;-79
2022/04/07 01:49:02;;;;;;;11.30;8.90;;;9.50;99.90;;;;;;5056554;28;20031;-79
2022/04/07 01:51:29;;;;;;;10.93;8.00;;;9.50;99.90;;;;;;5072207;28;20028;-78
2022/04/07 01:53:56;;;;;;;11.05;7.80;;;9.50;99.90;;;;;;5048011;28;20501;-78
2022/04/07 01:56:23;;;;;;;10.32;8.00;;;9.60;99.90;;;;;;5077917;28;20520;-78
2022/04/07 01:58:49;;;;;;;11.90;8.35;;;9.70;99.90;;;;;;5072538;28;20511;-78
2022/04/07 02:01:15;;;;;;;12.10;7.85;;;9.70;99.90;;;;;;5070470;28;20074;-78
2022/04/07 02:03:42;;;;;;;10.80;7.53;;;9.60;99.90;;;;;;5054564;28;20032;-78
2022/04/07 02:06:15;;;;;;;11.27;8.38;;;9.70;99.90;;;;;;5049873;28;20475;-78
2022/04/07 02:08:41;;;;;;;11.65;7.45;;;9.60;99.90;;;;;;5067326;28;20048;-79
2022/04/07 02:11:10;;;;;;;10.82;7.22;;;9.60;99.90;;;;;;5061728;28;20025;-79
2022/04/07 02:13:38;;;;;;;10.43;7.15;;;9.60;99.90;;;;;;5079989;28;20028;-77
2022/04/07 02:16:06;;;;;;;11.05;7.50;;;9.70;99.90;;;;;;5074485;28;20123;-78
2022/04/07 02:18:32;;;;;;;10.00;6.68;;;9.70;99.90;;;;;;5046572;28;20063;-78
2022/04/07 02:20:58;;;;;;;7.97;6.70;;;9.70;99.90;;;;;;5070197;28;20067;-78
2022/04/07 02:23:26;;;;;;;12.20;7.50;;;9.70;99.90;;;;;;5054052;28;20074;-78
2022/04/07 02:25:51;;;;;;;12.52;7.80;;;9.70;99.90;;;;;;5071825;28;20028;-78
2022/04/07 02:28:18;;;;;;;13.35;7.60;;;9.70;99.90;;;;;;5040444;28;20074;-79
2022/04/07 02:30:46;;;;;;;11.95;7.47;;;9.70;99.90;;;;;;5073229;28;20042;-79
2022/04/07 02:33:12;;;;;;;10.93;7.57;;;9.70;99.90;;;;;;5052549;28;20036;-78
2022/04/07 02:35:38;;;;;;;10.45;7.38;;;9.70;99.90;;;;;;5074653;28;20066;-77
2022/04/07 02:38:04;;;;;;;12.15;7.80;;;9.70;99.90;;;;;;5071691;28;20400;-78
2022/04/07 02:40:30;;;;;;;9.85;7.43;;;9.80;99.90;;;;;;5037538;28;20098;-77
2022/04/07 02:42:56;;;;;;;10.10;7.78;;;9.80;99.90;;;;;;5070705;28;20049;-79
2022/04/07 02:45:21;;;;;;;9.68;7.20;;;9.80;99.90;;;;;;5077203;28;20030;-79
2022/04/07 02:47:47;;;;;;;10.05;7.10;;;9.80;99.90;;;;;;5071088;28;20569;-77
2022/04/07 02:50:13;;;;;;;11.15;7.65;;;9.80;99.90;;;;;;5084630;28;20024;-78
2022/04/07 02:52:38;;;;;;;13.27;8.15;;;9.80;99.90;;;;;;5068127;28;20043;-78
2022/04/07 02:55:05;;;;;;;9.32;7.57;;;9.70;99.90;;;;;;5047638;28;20029;-78
2022/04/07 02:57:31;;;;;;;12.00;8.48;;;9.80;99.90;;;;;;5044337;28;20037;-78
2022/04/07 02:59:58;;;;;;;11.73;8.40;;;9.70;99.90;;;;;;5079590;28;20554;-78
2022/04/07 03:02:24;;;;;;;12.75;8.88;;;9.60;99.90;;;;;;5047216;28;20197;-78
2022/04/07 03:04:50;;;;;;;13.18;9.23;;;9.60;99.90;;;;;;5053658;28;20040;-78
2022/04/07 03:07:16;;;;;;;11.55;9.20;;;9.50;99.90;;;;;;5067623;28;20025;-77
2022/04/07 03:09:42;;;;;;;15.15;10.70;;;9.50;99.90;;;;;;5075568;28;20031;-80
2022/04/07 03:12:09;;;;;;;15.35;9.43;;;9.40;99.90;;;;;;5084141;28;20031;-78
2022/04/07 03:14:35;;;;;;;14.32;10.75;;;9.50;99.90;;;;;;5053487;28;20024;-79
2022/04/07 03:17:01;;;;;;;13.38;10.35;;;9.50;99.90;;;;;;5052709;28;20024;-77
2022/04/07 03:19:27;;;;;;;17.00;11.10;;;9.50;99.90;;;;;;5070164;28;20174;-79
2022/04/07 03:21:53;;;;;;;17.13;10.95;;;9.50;99.90;;;;;;5058544;28;20024;-81
2022/04/07 03:24:19;;;;;;;13.55;10.52;;;9.40;99.90;;;;;;5079358;28;20059;-79
2022/04/07 03:26:45;;;;;;;17.90;11.48;;;9.40;99.90;;;;;;5085024;28;20039;-79
2022/04/07 03:29:10;;;;;;;14.10;11.07;;;9.40;99.90;;;;;;5056150;28;20021;-78
2022/04/07 03:31:36;;;;;;;14.95;11.68;;;9.40;99.90;;;;;;5055739;28;20032;-77
2022/04/07 03:34:02;;;;;;;13.75;10.73;;;9.50;99.90;;;;;;5039869;28;20020;-78
2022/04/07 03:36:28;;;;;;;13.10;10.70;;;9.60;99.90;;;;;;5055370;28;20036;-78
2022/04/07 03:38:54;;;;;;;12.05;10.15;;;9.60;99.90;;;;;;5068750;28;20033;-78
2022/04/07 03:41:20;;;;;;;11.85;9.82;;;9.60;99.90;;;;;;5066076;28;20029;-78
2022/04/07 03:43:45;;;;;;;12.32;10.60;;;9.70;99.90;;;;;;5045737;28;20025;-80
2022/04/07 03:46:12;;;;;;;14.90;10.55;;;9.70;99.90;;;;;;5066218;28;20024;-78
2022/04/07 03:48:38;;;;;;;13.73;10.10;;;9.70;99.90;;;;;;5034035;28;20032;-79
2022/04/07 03:51:05;;;;;;;15.88;10.10;;;9.60;99.90;;;;;;5045423;28;20381;-78
2022/04/07 03:53:30;;;;;;;12.60;9.50;;;9.70;99.90;;;;;;5071165;28;20510;-79
2022/04/07 03:55:56;;;;;;;14.85;10.15;;;9.70;99.90;;;;;;5033102;28;20024;-78
2022/04/07 03:58:21;;;;;;;11.30;9.65;;;9.70;99.90;;;;;;5050915;28;20048;-78
2022/04/07 04:00:47;;;;;;;12.57;8.77;;;9.80;99.90;;;;;;5023181;28;20024;-78
2022/04/07 04:03:13;;;;;;;11.25;8.90;;;9.70;99.90;;;;;;5039500;28;20740;-77
2022/04/07 04:05:40;;;;;;;14.77;9.38;;;9.80;99.90;;;;;;5054654;28;20115;-79
2022/04/07 04:08:06;;;;;;;12.32;7.72;;;9.80;99.90;;;;;;5050609;28;20108;-78
2022/04/07 04:10:31;;;;;;;14.05;8.65;;;9.80;99.90;;;;;;5053357;28;20096;-78
2022/04/07 04:12:58;;;;;;;12.60;8.38;;;9.70;99.90;;;;;;5050522;28;20068;-77
2022/04/07 04:15:24;;;;;;;13.68;8.02;;;9.70;99.90;;;;;;5053018;28;20181;-78
2022/04/07 04:17:50;;;;;;;9.40;7.63;;;9.70;99.90;;;;;;5051319;28;20532;-78
2022/04/07 04:20:15;;;;;;;10.25;7.60;;;9.70;99.90;;;;;;5032611;28;20056;-80
2022/04/07 04:22:41;;;;;;;11.32;7.57;;;9.70;99.90;;;;;;5042002;28;20028;-78
2022/04/07 04:25:10;;;;;;;11.85;8.07;;;9.70;99.90;;;;;;5057282;28;20036;-80
2022/04/07 04:27:36;;;;;;;13.88;8.45;;;9.60;99.90;;;;;;5053966;28;20100;-78
2022/04/07 04:30:02;;;;;;;8.95;7.13;;;9.60;99.90;;;;;;5037120;28;20112;-78
2022/04/07 04:32:27;;;;;;;8.40;6.95;;;9.60;99.90;;;;;;5054727;28;20481;-77
2022/04/07 04:34:53;;;;;;;11.82;7.00;;;9.60;99.90;;;;;;5072435;28;20043;-78
2022/04/07 04:37:21;;;;;;;11.02;6.70;;;9.70;99.90;;;;;;5054521;28;20013;-78
2022/04/07 04:39:47;;;;;;;6.65;5.68;;;9.70;99.90;;;;;;5060660;28;20059;-78
2022/04/07 04:42:13;;;;;;;12.88;7.07;;;9.70;99.90;;;;;;5045537;28;20056;-78
2022/04/07 04:44:39;;;;;;;9.93;6.70;;;9.70;99.90;;;;;;5051302;28;20036;-78
2022/04/07 04:47:05;;;;;;;8.13;6.22;;;9.60;99.90;;;;;;5038153;28;20021;-77
2022/04/07 04:49:30;;;;;;;10.02;6.97;;;9.60;99.90;;;;;;5039570;28;20465;-78
2022/04/07 04:51:56;;;;;;;10.65;8.13;;;9.50;99.90;;;;;;5063235;28;20039;-78
2022/04/07 04:54:22;;;;;;;9.80;6.85;;;9.60;99.90;;;;;;5040733;28;20112;-78
2022/04/07 04:56:47;;;;;;;8.32;6.95;;;9.60;99.90;;;;;;5068179;28;20043;-78
2022/04/07 04:59:13;;;;;;;11.43;7.80;;;9.70;99.90;;;;;;5036486;28;20809;-78
2022/04/07 05:01:39;;;;;;;12.30;7.75;;;9.60;99.90;;;;;;5054742;28;20089;-78
2022/04/07 05:04:05;;;;;;;9.80;7.55;;;9.60;99.90;;;;;;5060415;28;20103;-72
2022/04/07 05:06:30;;;;;;;11.40;7.93;;;9.60;99.90;;;;;;5061108;28;20522;-72
2022/04/07 05:08:56;;;;;;;9.60;7.57;;;9.60;99.90;;;;;;5086457;28;20044;-79
2022/04/07 05:11:21;;;;;;;10.55;8.07;;;9.70;99.90;;;;;;5071346;28;20033;-79
2022/04/07 05:13:47;;;;;;;12.82;8.25;;;9.60;99.90;;;;;;5055526;28;20029;-79
2022/04/07 05:16:15;;;;;;;9.90;7.75;;;9.60;99.90;;;;;;5085235;28;20050;-79
2022/04/07 05:18:48;;;;;;;11.45;8.25;;;9.60;99.90;;;;;;5045373;28;20108;-78
2022/04/07 05:21:14;;;;;;;13.77;8.68;;;9.50;99.90;;;;;;5057563;28;20028;-79
2022/04/07 05:23:40;;;;;;;9.38;7.55;;;9.70;99.90;;;;;;5044901;28;20028;-79
2022/04/07 05:26:06;;;;;;;9.13;6.43;;;9.60;99.90;;;;;;5059549;28;20047;-78
2022/04/07 05:28:32;;;;;;;12.50;6.38;;;9.80;99.90;;;;;;5034779;28;20108;-78
2022/04/07 05:30:58;;;;;;;10.18;6.95;;;9.70;99.90;;;;;;5088930;28;20049;-81
2022/04/07 05:33:25;;;;;;;8.70;6.38;;;9.70;99.90;;;;;;5069122;28;20021;-81
2022/04/07 05:35:51;;;;;;;8.02;5.55;;;9.70;99.90;;;;;;5067738;28;20488;-77
2022/04/07 05:38:16;;;;;;;9.95;5.57;;;9.80;99.90;;;;;;5055402;28;20040;-77
2022/04/07 05:40:43;;;;;;;10.48;5.75;;;9.70;99.90;;;;;;5059661;28;20028;-81
2022/04/07 05:43:09;;;;;;;8.30;5.65;;;9.70;99.90;;;;;;5038357;28;20024;-77
2022/04/07 05:45:34;;;;;;;8.25;5.13;;;9.80;99.90;;;;;;5059200;28;20028;-77
2022/04/07 05:48:00;;;;;;;7.72;5.00;;;9.80;99.90;;;;;;5058401;28;20035;-77
2022/04/07 05:50:26;;;;;;;7.15;4.68;;;9.70;99.90;;;;;;5074288;28;20160;-77
2022/04/07 05:52:51;;;;;;;7.35;5.20;;;9.70;99.90;;;;;;5064474;28;20369;-78
2022/04/07 05:55:17;;;;;;;8.05;4.55;;;9.70;99.90;;;;;;5074422;28;20024;-77
2022/04/07 05:57:43;;;;;;;6.75;4.53;;;9.70;99.90;;;;;;5056032;28;20099;-78
2022/04/07 06:00:13;;;;;;;4.97;4.00;;;9.70;99.90;;;;;;5082317;28;20032;-77
2022/04/07 06:02:42;;;;;;;8.02;4.43;;;9.70;99.90;;;;;;5080294;28;20029;-77
2022/04/07 06:05:09;;;;;;;5.55;4.10;;;9.60;99.90;;;;;;5091956;28;20012;-78
2022/04/07 06:07:35;;;;;;;8.07;4.30;;;9.60;99.90;;;;;;5085131;28;20400;-77
2022/04/07 06:10:01;;;;;;;7.50;4.40;;;9.60;99.90;;;;;;5038479;28;20025;-77
2022/04/07 06:12:27;;;;;;;8.00;4.05;;;9.60;99.90;;;;;;5046257;28;20416;-78
2022/04/07 06:14:53;;;;;;;9.20;4.45;;;9.70;99.90;;;;;;5054005;28;20082;-79
2022/04/07 06:17:19;;;;;;;7.78;4.65;;;9.70;99.90;;;;;;5073163;28;20024;-77
2022/04/07 06:19:45;;;;;;;8.30;4.47;;;9.60;99.90;;;;;;5043991;28;20028;-79
2022/04/07 06:22:12;;;;;;;5.82;4.45;;;9.70;99.90;;;;;;5067346;28;20033;-78
2022/04/07 06:24:38;;;;;;;7.20;5.00;;;9.60;99.90;;;;;;5073350;28;20021;-79
2022/04/07 06:27:04;;;;;;;8.07;5.30;;;9.70;99.90;;;;;;5068861;28;20027;-78
2022/04/07 06:29:30;;;;;;;8.02;5.95;;;9.70;99.90;;;;;;5075493;28;20070;-79
2022/04/07 06:31:55;;;;;;;9.50;6.18;;;9.80;99.90;;;;;;5053505;28;20033;-77
2022/04/07 06:34:21;;;;;;;7.43;6.35;;;9.90;99.90;;;;;;5057858;28;20047;-78
2022/04/07 06:36:47;;;;;;;8.13;5.72;;;9.80;99.90;;;;;;5083018;28;20032;-78
2022/04/07 06:39:13;;;;;;;10.27;5.72;;;9.80;99.90;;;;;;5032267;28;20028;-76
2022/04/07 06:41:39;;;;;;;9.68;6.28;;;9.90;99.90;;;;;;5063482;28;20040;-77
2022/04/07 06:44:05;;;;;;;10.40;6.47;;;9.90;99.90;;;;;;5053564;28;20526;-76
2022/04/07 06:46:32;;;;;;;7.75;6.05;;;10.10;99.90;;;;;;5073120;28;20033;-76
2022/04/07 06:48:59;;;;;;;11.13;6.32;;;10.20;99.90;;;;;;5086631;28;20075;-76
2022/04/07 06:51:25;;;;;;;11.20;6.35;;;10.20;99.90;;;;;;5054093;28;20148;-76
2022/04/07 06:53:51;;;;;;;10.15;6.78;;;10.30;99.90;;;;;;5056790;28;21846;-77
2022/04/07 06:56:16;;;;;;;10.05;5.35;;;10.30;99.90;;;;;;5047754;28;20516;-78
2022/04/07 06:58:42;;;;;;;9.65;6.03;;;10.30;99.90;;;;;;5068553;28;20032;-77
2022/04/07 07:01:08;;;;;;;9.75;5.65;;;10.20;99.90;;;;;;5058859;28;20036;-77
2022/04/07 07:03:35;;;;;;;15.65;6.75;;;10.20;99.90;;;;;;5051646;28;20043;-75
2022/04/07 07:06:00;;;;;;;10.60;5.82;;;10.30;99.90;;;;;;5049276;28;20148;-77
2022/04/07 07:08:26;;;;;;;9.57;5.45;;;10.40;99.90;;;;;;5071866;28;20123;-77
2022/04/07 07:10:53;;;;;;;12.30;5.78;;;10.30;99.90;;;;;;5055834;28;20115;-78
2022/04/07 07:13:21;;;;;;;12.80;5.72;;;10.30;99.90;;;;;;5066637;28;20381;-78
2022/04/07 07:15:47;;;;;;;8.63;4.40;;;10.30;99.90;;;;;;5055316;28;20037;-77
2022/04/07 07:18:13;;;;;;;11.20;5.05;;;10.40;99.90;;;;;;5062730;28;20040;-78
2022/04/07 07:20:40;;;;;;;8.25;4.30;;;10.40;99.90;;;;;;5052504;28;20100;-77
2022/04/07 07:23:07;;;;;;;11.18;4.57;;;10.50;99.90;;;;;;5065075;28;20113;-77
2022/04/07 07:25:34;;;;;;;10.57;4.10;;;10.40;99.90;;;;;;5073029;28;20062;-78
2022/04/07 07:28:02;;;;;;;6.53;3.95;;;10.60;99.90;;;;;;5055013;28;20028;-80
2022/04/07 07:30:28;;;;;;;11.15;4.30;;;10.60;99.90;;;;;;5070763;28;20436;-76
2022/04/07 07:32:54;;;;;;;9.60;4.25;;;10.60;99.90;;;;;;5055065;28;20036;-78
2022/04/07 07:35:21;;;;;;;6.25;4.55;;;10.50;99.90;;;;;;5070027;28;20078;-78
2022/04/07 07:37:56;;;;;;;12.55;3.80;;;10.50;99.90;;;;;;5054037;28;20028;-76
2022/04/07 07:40:25;;;;;;;14.40;5.05;;;10.50;99.90;;;;;;5084154;28;20032;-76
2022/04/07 07:42:57;;;;;;;13.57;4.55;;;10.40;99.90;;;;;;5064016;28;20036;-77
2022/04/07 07:45:27;;;;;;;8.57;4.22;;;10.30;99.90;;;;;;5055298;28;20031;-78
2022/04/07 07:47:53;;;;;;;7.72;4.28;;;10.30;99.90;;;;;;5058837;28;20479;-78
2022/04/07 07:50:19;;;;;;;8.30;3.97;;;10.20;99.90;;;;;;5070172;28;20139;-77
2022/04/07 07:52:46;;;;;;;7.22;4.03;;;10.20;99.90;;;;;;5058063;28;20031;-78
2022/04/07 07:55:13;;;;;;;11.27;5.00;;;10.00;99.90;;;;;;5071925;28;20016;-77
2022/04/07 07:57:38;;;;;;;9.77;4.45;;;9.90;99.90;;;;;;5053969;28;20031;-79
2022/04/07 08:00:07;;;;;;;9.25;4.22;;;9.70;99.90;;;;;;5047312;28;20111;-78
2022/04/07 08:02:38;;;;;;;7.88;3.70;;;9.80;99.90;;;;;;5073091;28;20020;-78
2022/04/07 08:05:06;;;;;;;6.53;3.97;;;9.80;99.90;;;;;;5054755;28;20044;-78
2022/04/07 08:07:33;;;;;;;8.18;4.00;;;9.80;99.90;;;;;;5056575;28;20275;-77
2022/04/07 08:10:00;;;;;;;9.02;4.40;;;9.70;99.90;;;;;;5087059;28;20084;-77
2022/04/07 08:12:26;;;;;;;14.20;6.07;;;9.70;99.90;;;;;;5029556;28;20028;-78
2022/04/07 08:14:53;;;;;;;9.23;4.30;;;9.70;99.90;;;;;;5073751;28;20441;-77
2022/04/07 08:17:20;;;;;;;6.93;3.83;;;9.70;99.90;;;;;;5053919;28;20032;-79
2022/04/07 08:19:46;;;;;;;10.93;4.20;;;9.70;99.90;;;;;;5047446;28;20025;-78
2022/04/07 08:22:13;;;;;;;9.35;4.38;;;9.70;99.90;;;;;;5028245;28;20036;-78
2022/04/07 08:24:38;;;;;;;7.13;4.03;;;9.80;99.90;;;;;;5037814;28;20031;-78
2022/04/07 08:27:05;;;;;;;7.10;4.18;;;9.70;99.90;;;;;;5068163;28;20089;-78
2022/04/07 08:29:31;;;;;;;8.70;3.88;;;9.70;99.90;;;;;;5086607;28;20156;-77
2022/04/07 08:31:57;;;;;;;9.60;4.30;;;9.70;99.90;;;;;;5050916;28;20033;-79
2022/04/07 08:34:25;;;;;;;15.00;4.32;;;9.60;99.90;;;;;;5050981;28;20046;-78
2022/04/07 08:36:51;;;;;;;8.82;4.47;;;9.60;99.90;;;;;;5083883;28;20029;-78
2022/04/07 08:39:17;;;;;;;11.98;4.13;;;9.60;99.90;;;;;;5077266;28;20021;-78
2022/04/07 08:41:45;;;;;;;13.23;4.45;;;9.60;99.90;;;;;;5062034;28;20029;-79
2022/04/07 08:44:12;;;;;;;12.52;4.47;;;9.50;99.90;;;;;;5046910;28;20033;-79
2022/04/07 08:46:39;;;;;;;8.07;3.75;;;9.40;99.90;;;;;;5056328;28;20020;-77
2022/04/07 08:49:07;;;;;;;12.02;4.68;;;9.40;99.90;;;;;;5055959;28;20035;-79
2022/04/07 08:51:33;;;;;;;11.25;4.03;;;9.40;99.90;;;;;;5072995;28;20035;-78
2022/04/07 08:53:59;;;;;;;7.85;3.30;;;9.40;99.90;;;;;;5059934;28;20051;-78
2022/04/07 08:56:26;;;;;;;10.98;3.53;;;9.40;99.90;;;;;;5075831;28;20020;-79
2022/04/07 08:58:53;;;;;;;6.65;2.90;;;9.40;99.90;;;;;;5075522;28;20158;-78
2022/04/07 09:01:20;;;;;;;4.85;1.55;;;9.40;99.90;;;;;;5033076;28;20064;-77
2022/04/07 09:03:47;;;;;;;3.75;1.30;;;9.10;99.90;;;;;;5048102;28;20036;-78
2022/04/07 09:06:21;;;;;;;3.17;1.30;;;8.40;99.90;;;;;;5054900;28;20027;-78
2022/04/07 09:08:47;;;;;;;2.75;1.02;;;8.00;99.90;;;;;;5055611;28;20054;-80
2022/04/07 09:11:13;;;;;;;2.78;0.88;;;7.90;99.90;;;;;;5097551;28;20029;-77
2022/04/07 09:13:41;;;;;;;2.97;0.80;;;7.80;99.90;;;;;;5074449;28;20142;-77
2022/04/07 09:16:12;;;;;;;2.47;0.70;;;7.70;99.90;;;;;;5092987;28;20028;-77
2022/04/07 09:18:39;;;;;;;1.13;0.70;;;7.40;99.90;;;;;;5064536;28;20025;-78
2022/04/07 09:21:15;;;;;;;7.05;3.55;;;7.40;99.90;;;;;;5064476;28;20063;-78
2022/04/07 09:23:42;;;;;;;3.13;0.70;;;7.30;99.90;;;;;;5051008;28;20029;-78
2022/04/07 09:26:13;;;;;;;5.43;1.20;;;7.30;99.90;;;;;;5042776;28;20020;-77
2022/04/07 09:28:38;;;;;;;4.25;1.40;;;7.20;99.90;;;;;;5046606;28;20504;-78
2022/04/07 09:31:04;;;;;;;2.88;0.60;;;7.20;99.90;;;;;;5066264;28;20024;-78
2022/04/07 09:33:31;;;;;;;3.08;0.80;;;7.10;99.90;;;;;;5053075;28;20052;-78
2022/04/07 09:36:06;;;;;;;5.82;2.30;;;7.00;99.90;;;;;;5045238;28;20098;-78
2022/04/07 09:38:34;;;;;;;4.57;1.30;;;7.10;99.90;;;;;;5040203;28;20031;-79
2022/04/07 09:41:11;;;;;;;1.95;0.80;;;7.00;99.90;;;;;;5073871;28;20020;-78
2022/04/07 09:43:51;;;;;;;3.25;0.90;;;7.10;99.90;;;;;;5057811;28;20527;-77
2022/04/07 09:46:18;;;;;;;2.00;0.77;;;7.20;99.90;;;;;;5072776;28;20546;-78
2022/04/07 09:49:05;;;;;;;1.10;0.60;;;7.10;99.90;;;;;;5053946;28;20645;-78
2022/04/07 09:51:46;;;;;;;2.00;0.80;;;7.20;99.90;;;;;;5057969;28;20021;-77
2022/04/07 09:54:16;;;;;;;;;;;7.10;99.90;;;;;;5082585;28;20028;-77
2022/04/07 09:56:52;;;;;;;1.30;0.60;;;7.10;99.90;;;;;;5052747;28;19969;-77
2022/04/07 09:59:20;;;;;;;3.95;0.70;;;7.10;99.90;;;;;;5087349;28;20028;-77
2022/04/07 10:01:49;;;;;;;0.80;0.55;;;7.00;99.90;;;;;;5084229;28;20048;-77
2022/04/07 10:04:16;;;;;;;1.15;0.68;;;7.00;99.90;;;;;;5051537;28;20123;-77
2022/04/07 10:06:43;;;;;;;1.70;0.70;;;6.90;99.90;;;;;;5058437;28;20094;-77
2022/04/07 10:09:09;;;;;;;5.47;0.73;;;6.80;99.90;;;;;;5074609;28;20562;-78
2022/04/07 10:11:36;;;;;;;3.65;1.10;;;6.70;99.90;;;;;;5042771;28;20024;-78
2022/04/07 10:14:02;;;;;;;2.35;0.70;;;6.70;99.90;;;;;;5043340;28;20160;-78
2022/04/07 10:16:28;;;;;;;2.78;1.15;;;6.80;99.90;;;;;;5049585;28;20066;-78
2022/04/07 10:19:11;;;;;;;2.08;0.93;;;6.70;99.90;;;;;;5057987;28;20127;-77
2022/04/07 10:22:12;;;;;;;2.20;0.90;;;6.80;99.90;;;;;;5061912;28;20033;-77
2022/04/07 10:24:44;;;;;;;3.90;1.20;;;6.70;99.90;;;;;;5038318;28;20373;-77
2022/04/07 10:27:14;;;;;;;4.15;0.90;;;6.70;99.90;;;;;;5063379;28;20036;-77
2022/04/07 10:30:00;;;;;;;1.75;0.88;;;6.60;99.90;;;;;;5063535;28;20040;-77
2022/04/07 10:32:34;;;;;;;5.35;1.00;;;6.60;99.90;;;;;;5074887;28;20055;-76
2022/04/07 10:35:00;;;;;;;3.80;1.10;;;6.50;99.90;;;;;;5043605;28;20040;-78
2022/04/07 10:37:31;;;;;;;3.75;1.55;;;6.40;99.90;;;;;;5073160;28;20025;-77
2022/04/07 10:40:33;;;;;;;3.95;1.33;;;6.30;99.90;;;;;;5050750;28;20025;-77
2022/04/07 10:43:17;;;;;;;4.05;0.95;;;6.30;99.90;;;;;;5082770;28;20032;-76
2022/04/07 10:45:44;;;;;;;3.67;1.10;;;6.20;99.90;;;;;;5057436;28;20032;-77
2022/04/07 10:48:17;;;;;;;2.92;0.80;;;6.10;99.90;;;;;;5050057;28;20096;-78
2022/04/07 10:50:52;;;;;;;2.80;1.08;;;6.00;99.90;;;;;;5054960;28;20116;-77
2022/04/07 10:53:20;;;;;;;2.88;0.77;;;5.90;99.90;;;;;;5026991;28;20017;-77
2022/04/07 10:56:13;;;;;;;2.20;0.70;;;5.90;99.90;;;;;;5089238;28;20204;-78
2022/04/07 10:58:47;;;;;;;3.08;1.33;;;5.80;99.90;;;;;;5059490;28;20060;-78
2022/04/07 11:01:42;;;;;;;4.00;1.10;;;5.90;99.90;;;;;;5034347;28;20083;-78
2022/04/07 11:04:25;;;;;;;2.10;0.80;;;5.90;99.90;;;;;;5079040;28;20078;-79
2022/04/07 11:07:07;;;;;;;2.72;1.20;;;5.90;99.90;;;;;;5048498;28;20024;-79
2022/04/07 11:10:03;;;;;;;4.78;1.80;;;5.90;99.90;;;;;;5076667;28;20020;-76
2022/04/07 11:12:33;;;;;;;3.70;1.70;;;6.00;99.90;;;;;;5073836;28;20024;-78
2022/04/07 11:15:02;;;;;;;3.97;2.70;;;6.10;99.90;;;;;;5059071;28;20041;-78
2022/04/07 11:17:36;;;;;;;5.25;2.85;;;6.30;99.90;;;;;;5076963;28;20043;-78
2022/04/07 11:20:22;;;;;;;7.75;4.53;;;6.50;99.90;;;;;;5053339;28;20077;-80
2022/04/07 11:22:51;;;;;;;177.25;20.42;;;7.20;99.90;;;;;;5073521;28;20028;-78
2022/04/07 11:25:25;;;;;;;8.27;2.95;;;9.40;99.90;;;;;;5052716;28;20120;-79
2022/04/07 11:28:14;;;;;;;7.10;2.38;;;10.60;99.90;;;;;;5058465;28;20033;-78
2022/04/07 11:30:47;;;;;;;3.92;1.80;;;11.50;99.90;;;;;;5067458;28;20061;-79
2022/04/07 11:33:28;;;;;;;4.45;1.73;;;12.00;99.90;;;;;;5061166;28;20070;-79
2022/04/07 11:35:59;;;;;;;2.72;1.17;;;12.10;99.90;;;;;;5065470;28;20025;-79
2022/04/07 11:38:43;;;;;;;1.35;1.00;;;12.30;99.90;;;;;;5086941;28;20025;-78
2022/04/07 11:41:17;;;;;;;2.40;0.95;;;12.60;99.90;;;;;;5076601;28;20702;-79
2022/04/07 11:43:52;;;;;;;5.95;1.20;;;11.80;99.90;;;;;;5056579;28;20025;-79
2022/04/07 11:46:31;;;;;;;3.88;1.35;;;12.30;99.90;;;;;;5073879;28;20020;-79
2022/04/07 11:48:58;;;;;;;3.08;0.90;;;12.50;99.90;;;;;;5058353;28;20077;-79
2022/04/07 11:51:26;;;;;;;1.88;0.73;;;12.10;99.90;;;;;;5056566;28;20020;-79
2022/04/07 11:53:53;;;;;;;3.13;0.90;;;11.60;99.90;;;;;;5077177;28;20020;-82
2022/04/07 11:56:27;;;;;;;3.03;1.00;;;11.20;99.90;;;;;;5078223;28;20123;-78
2022/04/07 11:59:07;;;;;;;1.90;1.02;;;11.10;99.90;;;;;;5060370;28;20082;-79
2022/04/07 12:01:38;;;;;;;2.60;0.93;;;10.90;99.90;;;;;;5080441;28;20561;-78
2022/04/07 12:04:09;;;;;;;1.75;1.25;;;11.00;99.90;;;;;;5084423;28;20033;-78
2022/04/07 12:06:37;;;;;;;2.03;1.00;;;11.30;99.90;;;;;;5080254;28;20029;-78
2022/04/07 12:09:05;;;;;;;3.00;1.13;;;11.40;99.90;;;;;;5060135;28;20051;-78
2022/04/07 12:11:36;;;;;;;2.10;1.58;;;11.00;99.90;;;;;;5060258;28;20028;-78
2022/04/07 12:14:06;;;;;;;;;;;10.50;99.90;;;;;;5045705;28;20042;-79
2022/04/07 12:16:32;;;;;;;6.10;1.45;;;10.60;99.90;;;;;;5060719;28;19913;-79
2022/04/07 12:19:04;;;;;;;4.40;1.65;;;10.90;99.90;;;;;;5054478;28;20039;-79
2022/04/07 12:21:52;;;;;;;3.72;1.65;;;11.30;99.90;;;;;;5056554;28;20399;-78
2022/04/07 12:24:18;;;;;;;3.25;1.45;;;11.10;99.90;;;;;;5086955;28;20022;-77
2022/04/07 12:26:49;;;;;;;4.20;1.98;;;10.90;99.90;;;;;;5073527;28;20111;-78
2022/04/07 12:29:20;;;;;;;4.70;1.70;;;11.90;99.90;;;;;;5077921;28;20017;-79
2022/04/07 12:31:56;;;;;;;3.25;1.50;;;12.80;99.90;;;;;;5064550;28;20029;-78
2022/04/07 12:34:22;;;;;;;70.35;44.03;;;12.70;99.90;;;;;;5056072;28;20025;-80
2022/04/07 12:36:47;;;;;;;51.58;29.98;;;13.10;99.90;;;;;;5038627;28;20050;-78
2022/04/07 12:39:17;;;;;;;21.63;10.48;;;13.50;99.90;;;;;;5062547;28;20031;-77
2022/04/07 12:41:52;;;;;;;30.83;19.35;;;14.40;99.90;;;;;;5093389;28;20036;-77
2022/04/07 12:44:22;;;;;;;10.93;5.10;;;15.10;99.90;;;;;;5064027;28;20031;-78
2022/04/07 12:46:53;;;;;;;5.72;1.58;;;15.20;99.90;;;;;;5082931;28;20214;-78
2022/04/07 12:49:32;;;;;;;3.78;1.55;;;14.80;99.90;;;;;;5079723;28;20035;-79
2022/04/07 12:52:18;;;;;;;6.38;1.17;;;15.50;99.90;;;;;;5095930;28;20021;-78
2022/04/07 12:54:58;;;;;;;5.47;1.45;;;15.80;99.90;;;;;;5041242;28;20028;-78
2022/04/07 12:57:50;;;;;;;3.80;1.25;;;15.30;99.90;;;;;;5042849;28;20074;-78